sensor_id;sensor_type;location;lat;lon;timestamp;pressure;altitude;pressure_sealevel;temperature;humidity
7962;BME280;4026;43.652;24.906;2022-09-29T00:00:47;98154.81;;;18.13;70.76
7962;BME280;4026;43.652;24.906;2022-09-29T00:03:14;98149.00;;;18.11;71.43
7962;BME280;4026;43.652;24.906;2022-09-29T00:05:46;98145.19;;;18.07;71.38
7962;BME280;4026;43.652;24.906;2022-09-29T00:08:14;98146.34;;;18.04;71.71
7962;BME280;4026;43.652;24.906;2022-09-29T00:10:41;98149.56;;;18.06;73.00
7962;BME280;4026;43.652;24.906;2022-09-29T00:13:08;98147.44;;;18.31;70.57
7962;BME280;4026;43.652;24.906;2022-09-29T00:15:35;98142.94;;;18.19;71.86
7962;BME280;4026;43.652;24.906;2022-09-29T00:18:03;98140.75;;;18.01;73.35
7962;BME280;4026;43.652;24.906;2022-09-29T00:20:31;98146.00;;;17.93;72.96
7962;BME280;4026;43.652;24.906;2022-09-29T00:22:58;98148.63;;;17.78;73.98
7962;BME280;4026;43.652;24.906;2022-09-29T00:25:25;98149.91;;;17.59;75.41
7962;BME280;4026;43.652;24.906;2022-09-29T00:27:52;98145.38;;;17.61;75.55
7962;BME280;4026;43.652;24.906;2022-09-29T00:30:18;98145.75;;;17.58;75.64
7962;BME280;4026;43.652;24.906;2022-09-29T00:32:45;98143.44;;;17.63;76.38
7962;BME280;4026;43.652;24.906;2022-09-29T00:35:14;98137.34;;;17.56;76.65
7962;BME280;4026;43.652;24.906;2022-09-29T00:37:42;98150.00;;;17.51;77.19
7962;BME280;4026;43.652;24.906;2022-09-29T00:40:09;98135.66;;;17.48;76.95
7962;BME280;4026;43.652;24.906;2022-09-29T00:42:36;98135.22;;;17.45;77.11
7962;BME280;4026;43.652;24.906;2022-09-29T00:45:13;98139.50;;;17.37;77.79
7962;BME280;4026;43.652;24.906;2022-09-29T00:47:44;98141.38;;;17.29;78.07
7962;BME280;4026;43.652;24.906;2022-09-29T00:50:17;98136.19;;;17.29;79.16
7962;BME280;4026;43.652;24.906;2022-09-29T00:52:48;98139.28;;;17.24;79.45
7962;BME280;4026;43.652;24.906;2022-09-29T00:55:20;98142.88;;;17.23;79.51
7962;BME280;4026;43.652;24.906;2022-09-29T00:57:53;98133.25;;;17.17;79.80
7962;BME280;4026;43.652;24.906;2022-09-29T01:00:22;98135.53;;;17.12;79.09
7962;BME280;4026;43.652;24.906;2022-09-29T01:02:51;98138.38;;;17.02;79.35
7962;BME280;4026;43.652;24.906;2022-09-29T01:05:24;98137.66;;;16.93;79.04
7962;BME280;4026;43.652;24.906;2022-09-29T01:07:52;98136.03;;;16.92;79.40
7962;BME280;4026;43.652;24.906;2022-09-29T01:10:19;98136.94;;;17.00;79.30
7962;BME280;4026;43.652;24.906;2022-09-29T01:12:47;98134.19;;;17.01;78.26
7962;BME280;4026;43.652;24.906;2022-09-29T01:15:17;98141.84;;;16.94;79.19
7962;BME280;4026;43.652;24.906;2022-09-29T01:17:45;98144.31;;;16.88;80.36
7962;BME280;4026;43.652;24.906;2022-09-29T01:20:15;98145.81;;;16.82;80.36
7962;BME280;4026;43.652;24.906;2022-09-29T01:26:21;98144.59;;;16.70;81.08
7962;BME280;4026;43.652;24.906;2022-09-29T01:29:33;98141.72;;;16.65;81.61
7962;BME280;4026;43.652;24.906;2022-09-29T01:32:11;98144.75;;;16.68;81.29
7962;BME280;4026;43.652;24.906;2022-09-29T01:34:44;98145.25;;;16.64;81.97
7962;BME280;4026;43.652;24.906;2022-09-29T01:37:34;98134.63;;;16.67;81.68
7962;BME280;4026;43.652;24.906;2022-09-29T01:40:09;98137.75;;;16.54;81.43
7962;BME280;4026;43.652;24.906;2022-09-29T01:42:45;98140.97;;;16.56;81.73
7962;BME280;4026;43.652;24.906;2022-09-29T01:45:19;98136.25;;;16.37;82.05
7962;BME280;4026;43.652;24.906;2022-09-29T01:47:52;98137.69;;;16.39;82.65
7962;BME280;4026;43.652;24.906;2022-09-29T01:50:25;98132.59;;;16.31;82.32
7962;BME280;4026;43.652;24.906;2022-09-29T01:52:57;98130.19;;;16.29;82.59
7962;BME280;4026;43.652;24.906;2022-09-29T01:55:29;98128.22;;;16.32;82.28
7962;BME280;4026;43.652;24.906;2022-09-29T01:57:59;98117.78;;;16.25;82.70
7962;BME280;4026;43.652;24.906;2022-09-29T02:00:30;98123.97;;;16.16;83.50
7962;BME280;4026;43.652;24.906;2022-09-29T02:03:07;98124.88;;;16.23;83.57
7962;BME280;4026;43.652;24.906;2022-09-29T02:05:38;98131.63;;;16.32;83.27
7962;BME280;4026;43.652;24.906;2022-09-29T02:08:10;98133.91;;;16.27;83.86
7962;BME280;4026;43.652;24.906;2022-09-29T02:10:45;98130.97;;;16.30;83.97
7962;BME280;4026;43.652;24.906;2022-09-29T02:13:14;98130.97;;;16.30;84.29
7962;BME280;4026;43.652;24.906;2022-09-29T02:15:45;98134.72;;;16.27;83.83
7962;BME280;4026;43.652;24.906;2022-09-29T02:18:18;98141.19;;;16.23;83.81
7962;BME280;4026;43.652;24.906;2022-09-29T02:20:47;98131.38;;;16.19;83.85
7962;BME280;4026;43.652;24.906;2022-09-29T02:23:15;98141.53;;;16.20;83.38
7962;BME280;4026;43.652;24.906;2022-09-29T02:25:43;98138.66;;;16.15;84.21
7962;BME280;4026;43.652;24.906;2022-09-29T02:28:12;98141.03;;;16.17;83.88
7962;BME280;4026;43.652;24.906;2022-09-29T02:30:39;98146.72;;;16.12;83.65
7962;BME280;4026;43.652;24.906;2022-09-29T02:33:18;98154.50;;;16.04;83.70
7962;BME280;4026;43.652;24.906;2022-09-29T02:35:54;98146.13;;;16.02;83.73
7962;BME280;4026;43.652;24.906;2022-09-29T02:38:26;98150.47;;;16.01;84.41
7962;BME280;4026;43.652;24.906;2022-09-29T02:41:04;98150.50;;;15.93;84.27
7962;BME280;4026;43.652;24.906;2022-09-29T02:43:43;98155.06;;;15.91;84.20
7962;BME280;4026;43.652;24.906;2022-09-29T02:46:24;98167.09;;;15.91;84.00
7962;BME280;4026;43.652;24.906;2022-09-29T02:49:06;98163.72;;;15.90;83.97
7962;BME280;4026;43.652;24.906;2022-09-29T02:51:43;98172.44;;;15.89;84.17
7962;BME280;4026;43.652;24.906;2022-09-29T02:54:22;98171.66;;;15.89;84.11
7962;BME280;4026;43.652;24.906;2022-09-29T02:56:59;98162.47;;;15.86;84.27
7962;BME280;4026;43.652;24.906;2022-09-29T02:59:36;98162.63;;;15.84;84.51
7962;BME280;4026;43.652;24.906;2022-09-29T03:02:05;98148.28;;;15.82;84.89
7962;BME280;4026;43.652;24.906;2022-09-29T03:04:33;98155.06;;;15.83;84.82
7962;BME280;4026;43.652;24.906;2022-09-29T03:07:00;98150.53;;;15.85;84.27
7962;BME280;4026;43.652;24.906;2022-09-29T03:09:27;98151.53;;;15.84;84.84
7962;BME280;4026;43.652;24.906;2022-09-29T03:11:54;98158.59;;;15.82;84.42
7962;BME280;4026;43.652;24.906;2022-09-29T03:14:21;98158.59;;;15.82;84.68
7962;BME280;4026;43.652;24.906;2022-09-29T03:16:48;98151.84;;;15.81;84.14
7962;BME280;4026;43.652;24.906;2022-09-29T03:19:14;98158.16;;;15.78;84.63
7962;BME280;4026;43.652;24.906;2022-09-29T03:21:43;98145.78;;;15.74;84.95
7962;BME280;4026;43.652;24.906;2022-09-29T03:24:09;98146.38;;;15.76;85.29
7962;BME280;4026;43.652;24.906;2022-09-29T03:26:36;98146.72;;;15.73;85.45
7962;BME280;4026;43.652;24.906;2022-09-29T03:29:03;98138.69;;;15.68;85.65
7962;BME280;4026;43.652;24.906;2022-09-29T03:31:30;98136.94;;;15.68;85.33
7962;BME280;4026;43.652;24.906;2022-09-29T03:33:57;98142.38;;;15.73;84.77
7962;BME280;4026;43.652;24.906;2022-09-29T03:36:24;98148.97;;;15.76;85.78
7962;BME280;4026;43.652;24.906;2022-09-29T03:38:53;98147.25;;;15.68;86.18
7962;BME280;4026;43.652;24.906;2022-09-29T03:41:20;98149.00;;;15.59;86.17
7962;BME280;4026;43.652;24.906;2022-09-29T03:43:46;98142.72;;;15.62;85.72
7962;BME280;4026;43.652;24.906;2022-09-29T03:46:13;98150.09;;;15.73;85.75
7962;BME280;4026;43.652;24.906;2022-09-29T03:48:40;98152.78;;;15.88;86.10
7962;BME280;4026;43.652;24.906;2022-09-29T03:51:07;98150.25;;;15.80;86.96
7962;BME280;4026;43.652;24.906;2022-09-29T03:53:34;98156.41;;;15.71;87.66
7962;BME280;4026;43.652;24.906;2022-09-29T03:56:03;98153.50;;;15.66;87.14
7962;BME280;4026;43.652;24.906;2022-09-29T03:58:30;98152.50;;;15.67;87.83
7962;BME280;4026;43.652;24.906;2022-09-29T04:00:57;98148.34;;;15.66;88.04
7962;BME280;4026;43.652;24.906;2022-09-29T04:03:24;98156.22;;;15.64;87.51
7962;BME280;4026;43.652;24.906;2022-09-29T04:05:51;98154.16;;;15.68;87.60
7962;BME280;4026;43.652;24.906;2022-09-29T04:08:18;98164.44;;;15.68;87.73
7962;BME280;4026;43.652;24.906;2022-09-29T04:10:45;98162.50;;;15.61;88.61
7962;BME280;4026;43.652;24.906;2022-09-29T04:13:14;98155.44;;;15.63;88.15
7962;BME280;4026;43.652;24.906;2022-09-29T04:15:41;98148.34;;;15.66;88.54
7962;BME280;4026;43.652;24.906;2022-09-29T04:18:08;98150.28;;;15.63;88.77
7962;BME280;4026;43.652;24.906;2022-09-29T04:20:36;98164.13;;;15.62;88.75
7962;BME280;4026;43.652;24.906;2022-09-29T04:23:03;98167.66;;;15.61;88.83
7962;BME280;4026;43.652;24.906;2022-09-29T04:25:30;98172.19;;;15.68;88.95
7962;BME280;4026;43.652;24.906;2022-09-29T04:27:57;98174.28;;;15.72;88.19
7962;BME280;4026;43.652;24.906;2022-09-29T04:30:26;98175.41;;;15.70;88.79
7962;BME280;4026;43.652;24.906;2022-09-29T04:32:52;98182.78;;;15.65;89.12
7962;BME280;4026;43.652;24.906;2022-09-29T04:35:19;98180.56;;;15.70;88.79
7962;BME280;4026;43.652;24.906;2022-09-29T04:37:46;98174.75;;;15.68;88.47
7962;BME280;4026;43.652;24.906;2022-09-29T04:40:13;98174.75;;;15.76;88.22
7962;BME280;4026;43.652;24.906;2022-09-29T04:42:40;98174.41;;;15.79;88.18
7962;BME280;4026;43.652;24.906;2022-09-29T04:45:07;98184.88;;;15.86;88.37
7962;BME280;4026;43.652;24.906;2022-09-29T04:47:35;98190.97;;;15.84;88.90
7962;BME280;4026;43.652;24.906;2022-09-29T04:50:02;98191.44;;;15.88;89.17
7962;BME280;4026;43.652;24.906;2022-09-29T04:52:29;98194.00;;;15.96;88.97
7962;BME280;4026;43.652;24.906;2022-09-29T04:54:56;98200.28;;;15.94;89.35
7962;BME280;4026;43.652;24.906;2022-09-29T04:57:23;98203.34;;;15.97;88.64
7962;BME280;4026;43.652;24.906;2022-09-29T04:59:49;98204.63;;;16.01;88.88
7962;BME280;4026;43.652;24.906;2022-09-29T05:02:17;98196.84;;;16.10;88.52
7962;BME280;4026;43.652;24.906;2022-09-29T05:04:45;98204.22;;;16.21;88.06
7962;BME280;4026;43.652;24.906;2022-09-29T05:07:13;98202.56;;;16.28;87.89
7962;BME280;4026;43.652;24.906;2022-09-29T05:09:40;98184.94;;;16.40;88.06
7962;BME280;4026;43.652;24.906;2022-09-29T05:12:07;98186.03;;;16.45;87.26
7962;BME280;4026;43.652;24.906;2022-09-29T05:14:34;98190.75;;;16.65;87.64
7962;BME280;4026;43.652;24.906;2022-09-29T05:17:00;98192.47;;;16.72;87.49
7962;BME280;4026;43.652;24.906;2022-09-29T05:19:27;98192.38;;;16.89;87.51
7962;BME280;4026;43.652;24.906;2022-09-29T05:21:55;98198.16;;;17.14;88.62
7962;BME280;4026;43.652;24.906;2022-09-29T05:24:22;98191.19;;;17.37;87.82
7962;BME280;4026;43.652;24.906;2022-09-29T05:26:49;98191.19;;;17.67;87.38
7962;BME280;4026;43.652;24.906;2022-09-29T05:29:16;98190.78;;;17.93;84.26
7962;BME280;4026;43.652;24.906;2022-09-29T05:31:43;98191.53;;;18.23;85.74
7962;BME280;4026;43.652;24.906;2022-09-29T05:34:10;98190.63;;;18.52;83.03
7962;BME280;4026;43.652;24.906;2022-09-29T05:36:37;98193.59;;;18.86;79.54
7962;BME280;4026;43.652;24.906;2022-09-29T05:39:05;98188.88;;;19.17;80.09
7962;BME280;4026;43.652;24.906;2022-09-29T05:41:32;98189.50;;;19.54;78.44
7962;BME280;4026;43.652;24.906;2022-09-29T05:43:59;98191.69;;;19.79;77.28
7962;BME280;4026;43.652;24.906;2022-09-29T05:46:26;98189.59;;;19.96;75.58
7962;BME280;4026;43.652;24.906;2022-09-29T05:48:53;98177.91;;;20.20;76.95
7962;BME280;4026;43.652;24.906;2022-09-29T05:51:23;98175.34;;;20.40;73.24
7962;BME280;4026;43.652;24.906;2022-09-29T05:53:52;98168.84;;;20.70;71.29
7962;BME280;4026;43.652;24.906;2022-09-29T05:56:21;98174.66;;;21.06;73.84
7962;BME280;4026;43.652;24.906;2022-09-29T05:58:49;98176.25;;;21.33;69.58
7962;BME280;4026;43.652;24.906;2022-09-29T06:01:18;98177.00;;;21.60;71.19
7962;BME280;4026;43.652;24.906;2022-09-29T06:03:45;98176.50;;;21.97;70.38
7962;BME280;4026;43.652;24.906;2022-09-29T06:06:13;98182.97;;;22.32;65.91
7962;BME280;4026;43.652;24.906;2022-09-29T06:08:41;98185.34;;;22.41;63.98
7962;BME280;4026;43.652;24.906;2022-09-29T06:11:09;98189.72;;;22.47;64.49
7962;BME280;4026;43.652;24.906;2022-09-29T06:13:39;98191.97;;;22.68;64.46
7962;BME280;4026;43.652;24.906;2022-09-29T06:16:07;98197.41;;;22.92;65.84
7962;BME280;4026;43.652;24.906;2022-09-29T06:18:33;98197.78;;;23.02;63.71
7962;BME280;4026;43.652;24.906;2022-09-29T06:21:01;98196.84;;;23.21;64.68
7962;BME280;4026;43.652;24.906;2022-09-29T06:23:28;98196.59;;;23.48;63.04
7962;BME280;4026;43.652;24.906;2022-09-29T06:25:56;98206.78;;;23.75;61.42
7962;BME280;4026;43.652;24.906;2022-09-29T06:28:23;98207.06;;;24.03;58.05
7962;BME280;4026;43.652;24.906;2022-09-29T06:30:51;98215.56;;;24.29;58.94
7962;BME280;4026;43.652;24.906;2022-09-29T06:33:18;98205.38;;;24.57;58.56
7962;BME280;4026;43.652;24.906;2022-09-29T06:35:46;98216.03;;;24.86;56.21
7962;BME280;4026;43.652;24.906;2022-09-29T06:38:31;98216.84;;;24.98;51.66
7962;BME280;4026;43.652;24.906;2022-09-29T06:40:58;98204.06;;;25.20;56.74
7962;BME280;4026;43.652;24.906;2022-09-29T06:43:25;98207.00;;;25.36;50.68
7962;BME280;4026;43.652;24.906;2022-09-29T06:45:54;98212.13;;;25.42;51.94
7962;BME280;4026;43.652;24.906;2022-09-29T06:48:20;98210.41;;;25.71;50.39
7962;BME280;4026;43.652;24.906;2022-09-29T06:50:47;98216.13;;;26.09;49.82
7962;BME280;4026;43.652;24.906;2022-09-29T06:53:14;98221.53;;;26.02;48.75
7962;BME280;4026;43.652;24.906;2022-09-29T06:55:41;98217.75;;;26.10;48.88
7962;BME280;4026;43.652;24.906;2022-09-29T06:58:08;98221.94;;;26.11;52.29
7962;BME280;4026;43.652;24.906;2022-09-29T07:00:37;98219.06;;;26.24;50.67
7962;BME280;4026;43.652;24.906;2022-09-29T07:03:05;98221.03;;;26.46;50.08
7962;BME280;4026;43.652;24.906;2022-09-29T07:05:33;98222.38;;;26.60;49.10
7962;BME280;4026;43.652;24.906;2022-09-29T07:08:00;98218.91;;;26.88;52.77
7962;BME280;4026;43.652;24.906;2022-09-29T07:10:28;98222.13;;;27.24;52.00
7962;BME280;4026;43.652;24.906;2022-09-29T07:12:55;98223.47;;;27.26;47.95
7962;BME280;4026;43.652;24.906;2022-09-29T07:15:22;98227.84;;;27.38;49.03
7962;BME280;4026;43.652;24.906;2022-09-29T07:17:55;98228.84;;;27.37;47.14
7962;BME280;4026;43.652;24.906;2022-09-29T07:20:24;98221.91;;;27.47;47.50
7962;BME280;4026;43.652;24.906;2022-09-29T07:22:51;98219.34;;;27.69;47.42
7962;BME280;4026;43.652;24.906;2022-09-29T07:25:18;98228.44;;;27.84;45.46
7962;BME280;4026;43.652;24.906;2022-09-29T07:27:46;98228.66;;;27.99;44.94
7962;BME280;4026;43.652;24.906;2022-09-29T07:30:14;98239.97;;;27.99;47.16
7962;BME280;4026;43.652;24.906;2022-09-29T07:32:41;98237.16;;;27.84;44.78
7962;BME280;4026;43.652;24.906;2022-09-29T07:35:08;98239.59;;;27.91;46.20
7962;BME280;4026;43.652;24.906;2022-09-29T07:37:36;98235.72;;;28.20;46.07
7962;BME280;4026;43.652;24.906;2022-09-29T07:40:04;98232.66;;;28.29;45.87
7962;BME280;4026;43.652;24.906;2022-09-29T07:42:31;98240.97;;;28.20;43.58
7962;BME280;4026;43.652;24.906;2022-09-29T07:44:58;98247.59;;;28.45;44.15
7962;BME280;4026;43.652;24.906;2022-09-29T07:47:25;98243.50;;;28.59;43.84
7962;BME280;4026;43.652;24.906;2022-09-29T07:49:51;98251.25;;;28.44;42.62
7962;BME280;4026;43.652;24.906;2022-09-29T07:52:18;98245.31;;;28.32;43.02
7962;BME280;4026;43.652;24.906;2022-09-29T07:54:46;98247.91;;;28.49;43.62
7962;BME280;4026;43.652;24.906;2022-09-29T07:57:13;98246.34;;;28.53;41.31
7962;BME280;4026;43.652;24.906;2022-09-29T07:59:40;98241.28;;;28.24;40.81
7962;BME280;4026;43.652;24.906;2022-09-29T08:02:08;98249.59;;;28.38;46.08
7962;BME280;4026;43.652;24.906;2022-09-29T08:04:34;98255.78;;;28.76;43.45
7962;BME280;4026;43.652;24.906;2022-09-29T08:07:01;98254.09;;;29.24;43.35
7962;BME280;4026;43.652;24.906;2022-09-29T08:09:28;98257.41;;;29.46;41.50
7962;BME280;4026;43.652;24.906;2022-09-29T08:11:56;98257.13;;;29.43;41.42
7962;BME280;4026;43.652;24.906;2022-09-29T08:14:23;98254.47;;;29.05;42.28
7962;BME280;4026;43.652;24.906;2022-09-29T08:16:50;98251.50;;;28.70;41.49
7962;BME280;4026;43.652;24.906;2022-09-29T08:19:17;98254.16;;;28.70;43.85
7962;BME280;4026;43.652;24.906;2022-09-29T08:21:44;98254.44;;;28.46;43.72
7962;BME280;4026;43.652;24.906;2022-09-29T08:24:14;98257.63;;;28.75;45.23
7962;BME280;4026;43.652;24.906;2022-09-29T08:26:43;98249.91;;;28.19;43.25
7962;BME280;4026;43.652;24.906;2022-09-29T08:29:12;98247.44;;;28.35;42.31
7962;BME280;4026;43.652;24.906;2022-09-29T08:31:39;98256.13;;;28.84;44.65
7962;BME280;4026;43.652;24.906;2022-09-29T08:34:08;98251.25;;;28.98;43.18
7962;BME280;4026;43.652;24.906;2022-09-29T08:36:34;98244.66;;;29.28;42.77
7962;BME280;4026;43.652;24.906;2022-09-29T08:39:01;98240.81;;;29.08;41.00
7962;BME280;4026;43.652;24.906;2022-09-29T08:41:34;98235.66;;;28.92;40.16
7962;BME280;4026;43.652;24.906;2022-09-29T08:44:10;98245.88;;;29.15;42.63
7962;BME280;4026;43.652;24.906;2022-09-29T08:46:43;98232.78;;;28.93;40.61
7962;BME280;4026;43.652;24.906;2022-09-29T08:49:17;98235.69;;;29.24;40.29
7962;BME280;4026;43.652;24.906;2022-09-29T08:51:48;98240.53;;;29.05;42.22
7962;BME280;4026;43.652;24.906;2022-09-29T08:54:23;98252.69;;;28.84;42.08
7962;BME280;4026;43.652;24.906;2022-09-29T08:56:51;98253.25;;;28.86;44.05
7962;BME280;4026;43.652;24.906;2022-09-29T08:59:18;98250.06;;;28.84;41.61
7962;BME280;4026;43.652;24.906;2022-09-29T09:01:56;98239.22;;;29.07;45.25
7962;BME280;4026;43.652;24.906;2022-09-29T09:07:19;98251.13;;;28.88;47.80
7962;BME280;4026;43.652;24.906;2022-09-29T09:09:59;98256.72;;;28.64;48.28
7962;BME280;4026;43.652;24.906;2022-09-29T09:12:44;98254.19;;;28.48;48.17
7962;BME280;4026;43.652;24.906;2022-09-29T09:15:26;98258.16;;;28.28;49.00
7962;BME280;4026;43.652;24.906;2022-09-29T09:18:15;98264.22;;;28.29;49.43
7962;BME280;4026;43.652;24.906;2022-09-29T09:20:51;98267.09;;;28.05;47.75
7962;BME280;4026;43.652;24.906;2022-09-29T09:23:25;98271.41;;;27.94;48.72
7962;BME280;4026;43.652;24.906;2022-09-29T09:26:00;98272.97;;;27.73;49.45
7962;BME280;4026;43.652;24.906;2022-09-29T09:28:31;98279.19;;;27.67;50.27
7962;BME280;4026;43.652;24.906;2022-09-29T09:31:02;98286.19;;;27.62;50.89
7962;BME280;4026;43.652;24.906;2022-09-29T09:33:37;98285.44;;;27.66;49.28
7962;BME280;4026;43.652;24.906;2022-09-29T09:36:08;98293.03;;;27.63;49.37
7962;BME280;4026;43.652;24.906;2022-09-29T09:38:44;98293.81;;;27.63;49.90
7962;BME280;4026;43.652;24.906;2022-09-29T09:41:14;98297.34;;;27.52;49.91
7962;BME280;4026;43.652;24.906;2022-09-29T09:43:45;98284.66;;;27.66;48.86
7962;BME280;4026;43.652;24.906;2022-09-29T09:46:17;98286.31;;;27.89;49.96
7962;BME280;4026;43.652;24.906;2022-09-29T09:48:55;98290.13;;;27.98;47.34
7962;BME280;4026;43.652;24.906;2022-09-29T09:51:41;98291.47;;;27.79;47.69
7962;BME280;4026;43.652;24.906;2022-09-29T09:54:12;98294.56;;;27.42;49.68
7962;BME280;4026;43.652;24.906;2022-09-29T09:56:54;98285.72;;;27.48;50.10
7962;BME280;4026;43.652;24.906;2022-09-29T09:59:34;98292.09;;;27.52;50.33
7962;BME280;4026;43.652;24.906;2022-09-29T10:02:12;98284.06;;;27.42;50.13
7962;BME280;4026;43.652;24.906;2022-09-29T10:04:43;98283.97;;;27.37;50.31
7962;BME280;4026;43.652;24.906;2022-09-29T10:07:10;98278.25;;;27.40;50.36
7962;BME280;4026;43.652;24.906;2022-09-29T10:09:37;98285.72;;;27.31;51.46
7962;BME280;4026;43.652;24.906;2022-09-29T10:12:04;98289.63;;;27.28;49.36
7962;BME280;4026;43.652;24.906;2022-09-29T10:14:32;98289.59;;;27.62;51.43
7962;BME280;4026;43.652;24.906;2022-09-29T10:17:02;98294.59;;;28.19;50.32
7962;BME280;4026;43.652;24.906;2022-09-29T10:19:54;98292.03;;;28.69;48.99
7962;BME280;4026;43.652;24.906;2022-09-29T10:22:22;98291.63;;;29.09;46.36
7962;BME280;4026;43.652;24.906;2022-09-29T10:24:51;98280.56;;;29.44;46.04
7962;BME280;4026;43.652;24.906;2022-09-29T10:27:22;98287.16;;;29.84;46.61
7962;BME280;4026;43.652;24.906;2022-09-29T10:29:51;98285.44;;;30.15;42.30
7962;BME280;4026;43.652;24.906;2022-09-29T10:32:26;98289.00;;;30.41;43.24
7962;BME280;4026;43.652;24.906;2022-09-29T10:35:06;98280.06;;;30.63;43.70
7962;BME280;4026;43.652;24.906;2022-09-29T10:37:37;98284.84;;;30.76;41.18
7962;BME280;4026;43.652;24.906;2022-09-29T10:40:15;98286.75;;;31.01;41.09
7962;BME280;4026;43.652;24.906;2022-09-29T10:42:46;98278.03;;;31.26;40.81
7962;BME280;4026;43.652;24.906;2022-09-29T10:45:16;98279.09;;;31.46;39.64
7962;BME280;4026;43.652;24.906;2022-09-29T10:47:45;98274.31;;;31.68;37.41
7962;BME280;4026;43.652;24.906;2022-09-29T10:50:15;98277.44;;;31.70;36.67
7962;BME280;4026;43.652;24.906;2022-09-29T10:52:44;98272.75;;;31.47;38.73
7962;BME280;4026;43.652;24.906;2022-09-29T10:55:16;98282.00;;;31.60;36.43
7962;BME280;4026;43.652;24.906;2022-09-29T10:57:44;98276.47;;;31.30;35.14
7962;BME280;4026;43.652;24.906;2022-09-29T11:00:24;98275.94;;;31.39;35.84
7962;BME280;4026;43.652;24.906;2022-09-29T11:02:53;98265.34;;;30.98;36.09
7962;BME280;4026;43.652;24.906;2022-09-29T11:05:25;98270.63;;;31.18;36.95
7962;BME280;4026;43.652;24.906;2022-09-29T11:07:52;98263.78;;;31.38;35.69
7962;BME280;4026;43.652;24.906;2022-09-29T11:10:30;98264.81;;;31.62;35.90
7962;BME280;4026;43.652;24.906;2022-09-29T11:12:57;98271.63;;;31.78;35.72
7962;BME280;4026;43.652;24.906;2022-09-29T11:15:27;98261.63;;;31.65;35.44
7962;BME280;4026;43.652;24.906;2022-09-29T11:17:55;98262.16;;;31.62;36.47
7962;BME280;4026;43.652;24.906;2022-09-29T11:20:27;98258.44;;;31.68;37.32
7962;BME280;4026;43.652;24.906;2022-09-29T11:23:18;98255.28;;;31.66;37.45
7962;BME280;4026;43.652;24.906;2022-09-29T11:26:12;98247.94;;;31.27;36.48
7962;BME280;4026;43.652;24.906;2022-09-29T11:28:53;98263.53;;;31.13;37.02
7962;BME280;4026;43.652;24.906;2022-09-29T11:31:45;98265.91;;;31.10;37.80
7962;BME280;4026;43.652;24.906;2022-09-29T11:34:40;98279.81;;;30.75;37.77
7962;BME280;4026;43.652;24.906;2022-09-29T11:37:17;98273.97;;;30.47;38.77
7962;BME280;4026;43.652;24.906;2022-09-29T11:39:51;98280.06;;;30.53;38.44
7962;BME280;4026;43.652;24.906;2022-09-29T11:42:39;98279.53;;;30.66;40.62
7962;BME280;4026;43.652;24.906;2022-09-29T11:45:11;98283.25;;;30.55;40.87
7962;BME280;4026;43.652;24.906;2022-09-29T11:50:43;98291.84;;;30.25;39.67
7962;BME280;4026;43.652;24.906;2022-09-29T11:53:22;98283.72;;;30.41;39.00
7962;BME280;4026;43.652;24.906;2022-09-29T11:58:55;98286.13;;;30.53;42.19
7962;BME280;4026;43.652;24.906;2022-09-29T12:01:38;98285.63;;;30.77;40.23
7962;BME280;4026;43.652;24.906;2022-09-29T12:04:22;98279.84;;;30.70;40.06
7962;BME280;4026;43.652;24.906;2022-09-29T12:06:57;98290.81;;;30.36;38.88
7962;BME280;4026;43.652;24.906;2022-09-29T12:12:24;98285.69;;;30.09;40.75
7962;BME280;4026;43.652;24.906;2022-09-29T12:17:43;98287.59;;;29.66;39.19
7962;BME280;4026;43.652;24.906;2022-09-29T12:20:16;98290.63;;;29.52;39.78
7962;BME280;4026;43.652;24.906;2022-09-29T12:22:46;98296.88;;;29.78;38.89
7962;BME280;4026;43.652;24.906;2022-09-29T12:25:17;98297.22;;;29.92;37.47
7962;BME280;4026;43.652;24.906;2022-09-29T12:27:47;98306.75;;;30.04;36.48
7962;BME280;4026;43.652;24.906;2022-09-29T12:30:19;98295.16;;;30.05;36.08
7962;BME280;4026;43.652;24.906;2022-09-29T12:32:50;98296.75;;;30.06;36.79
7962;BME280;4026;43.652;24.906;2022-09-29T12:35:24;98303.50;;;29.86;36.12
7962;BME280;4026;43.652;24.906;2022-09-29T12:37:58;98308.22;;;29.79;35.24
7962;BME280;4026;43.652;24.906;2022-09-29T12:40:34;98302.28;;;29.62;35.27
7962;BME280;4026;43.652;24.906;2022-09-29T12:43:09;98303.22;;;29.45;35.73
7962;BME280;4026;43.652;24.906;2022-09-29T12:45:47;98314.69;;;29.29;37.40
7962;BME280;4026;43.652;24.906;2022-09-29T12:48:24;98313.91;;;29.01;36.57
7962;BME280;4026;43.652;24.906;2022-09-29T12:50:58;98312.94;;;28.85;38.77
7962;BME280;4026;43.652;24.906;2022-09-29T12:53:31;98309.22;;;28.54;38.27
7962;BME280;4026;43.652;24.906;2022-09-29T12:56:03;98313.94;;;28.52;39.88
7962;BME280;4026;43.652;24.906;2022-09-29T12:58:37;98314.72;;;28.31;41.26
7962;BME280;4026;43.652;24.906;2022-09-29T13:01:19;98310.13;;;27.99;40.26
7962;BME280;4026;43.652;24.906;2022-09-29T13:07:44;98294.66;;;27.47;43.87
7962;BME280;4026;43.652;24.906;2022-09-29T13:10:31;98303.31;;;27.02;46.00
7962;BME280;4026;43.652;24.906;2022-09-29T13:13:29;98303.44;;;26.78;47.27
7962;BME280;4026;43.652;24.906;2022-09-29T13:16:06;98310.56;;;26.66;47.72
7962;BME280;4026;43.652;24.906;2022-09-29T13:19:09;98309.63;;;26.72;46.90
7962;BME280;4026;43.652;24.906;2022-09-29T13:21:43;98314.03;;;26.83;47.84
7962;BME280;4026;43.652;24.906;2022-09-29T13:24:29;98308.41;;;26.92;45.96
7962;BME280;4026;43.652;24.906;2022-09-29T13:27:13;98310.38;;;26.84;45.40
7962;BME280;4026;43.652;24.906;2022-09-29T13:29:49;98308.78;;;26.83;45.34
7962;BME280;4026;43.652;24.906;2022-09-29T13:32:17;98308.22;;;26.81;44.89
7962;BME280;4026;43.652;24.906;2022-09-29T13:34:52;98310.06;;;26.81;44.60
7962;BME280;4026;43.652;24.906;2022-09-29T13:37:22;98302.34;;;26.74;44.83
7962;BME280;4026;43.652;24.906;2022-09-29T13:39:56;98309.84;;;26.82;45.77
7962;BME280;4026;43.652;24.906;2022-09-29T13:42:38;98308.53;;;26.68;45.79
7962;BME280;4026;43.652;24.906;2022-09-29T13:54:43;98303.91;;;26.35;45.06
7962;BME280;4026;43.652;24.906;2022-09-29T13:57:20;98309.09;;;26.18;44.96
7962;BME280;4026;43.652;24.906;2022-09-29T14:03:03;98308.75;;;26.03;45.10
7962;BME280;4026;43.652;24.906;2022-09-29T14:05:39;98305.25;;;25.85;46.16